sensor_id;sensor_type;location;lat;lon;timestamp;temperature;humidity
19809;DHT22;48538;32.784;-96.802;2023-05-18T00:01:17;27.30;99.90
19809;DHT22;48538;32.784;-96.802;2023-05-18T00:03:44;27.40;99.90
19809;DHT22;48538;32.784;-96.802;2023-05-18T00:06:10;27.50;99.90
19809;DHT22;48538;32.784;-96.802;2023-05-18T00:08:37;27.50;99.90
19809;DHT22;48538;32.784;-96.802;2023-05-18T00:11:04;27.50;99.90
19809;DHT22;48538;32.784;-96.802;2023-05-18T00:13:31;27.60;99.90
19809;DHT22;48538;32.784;-96.802;2023-05-18T00:15:57;27.70;99.90
19809;DHT22;48538;32.784;-96.802;2023-05-18T00:18:24;27.60;99.90
19809;DHT22;48538;32.784;-96.802;2023-05-18T00:20:51;27.50;99.90
19809;DHT22;48538;32.784;-96.802;2023-05-18T00:23:30;27.50;99.90
19809;DHT22;48538;32.784;-96.802;2023-05-18T00:25:58;27.40;99.90
19809;DHT22;48538;32.784;-96.802;2023-05-18T00:28:25;27.40;99.90
19809;DHT22;48538;32.784;-96.802;2023-05-18T00:30:53;27.40;99.90
19809;DHT22;48538;32.784;-96.802;2023-05-18T00:33:22;27.40;99.90
19809;DHT22;48538;32.784;-96.802;2023-05-18T00:35:48;27.40;99.90
19809;DHT22;48538;32.784;-96.802;2023-05-18T00:38:15;27.30;99.90
19809;DHT22;48538;32.784;-96.802;2023-05-18T00:40:44;27.40;99.90
19809;DHT22;48538;32.784;-96.802;2023-05-18T00:43:11;27.30;99.90
19809;DHT22;48538;32.784;-96.802;2023-05-18T00:45:37;27.30;99.90
19809;DHT22;48538;32.784;-96.802;2023-05-18T00:48:03;27.20;99.90
19809;DHT22;48538;32.784;-96.802;2023-05-18T00:50:30;27.10;99.90
19809;DHT22;48538;32.784;-96.802;2023-05-18T00:52:56;27.10;99.90
19809;DHT22;48538;32.784;-96.802;2023-05-18T00:55:23;27.10;99.90
19809;DHT22;48538;32.784;-96.802;2023-05-18T00:57:49;27.00;99.90
19809;DHT22;48538;32.784;-96.802;2023-05-18T01:00:16;26.90;99.90
19809;DHT22;48538;32.784;-96.802;2023-05-18T01:02:42;26.90;99.90
19809;DHT22;48538;32.784;-96.802;2023-05-18T01:05:11;26.80;99.90
19809;DHT22;48538;32.784;-96.802;2023-05-18T01:07:39;26.70;99.90
19809;DHT22;48538;32.784;-96.802;2023-05-18T01:10:11;26.70;99.90
19809;DHT22;48538;32.784;-96.802;2023-05-18T01:13:00;26.60;99.90
19809;DHT22;48538;32.784;-96.802;2023-05-18T01:15:36;26.60;99.90
19809;DHT22;48538;32.784;-96.802;2023-05-18T01:21:12;26.40;99.90
19809;DHT22;48538;32.784;-96.802;2023-05-18T01:28:50;25.90;99.90
19809;DHT22;48538;32.784;-96.802;2023-05-18T01:31:18;25.90;99.90
19809;DHT22;48538;32.784;-96.802;2023-05-18T01:33:45;25.80;99.90
19809;DHT22;48538;32.784;-96.802;2023-05-18T01:36:11;25.70;99.90
19809;DHT22;48538;32.784;-96.802;2023-05-18T01:38:40;25.60;99.90
19809;DHT22;48538;32.784;-96.802;2023-05-18T01:41:22;25.50;99.90
19809;DHT22;48538;32.784;-96.802;2023-05-18T01:44:10;25.40;99.90
19809;DHT22;48538;32.784;-96.802;2023-05-18T01:46:59;25.30;99.90
19809;DHT22;48538;32.784;-96.802;2023-05-18T01:52:19;25.30;99.90
19809;DHT22;48538;32.784;-96.802;2023-05-18T01:54:53;25.10;99.90
19809;DHT22;48538;32.784;-96.802;2023-05-18T01:57:23;25.00;99.90
19809;DHT22;48538;32.784;-96.802;2023-05-18T01:59:51;25.00;99.90
19809;DHT22;48538;32.784;-96.802;2023-05-18T02:02:19;25.00;99.90
19809;DHT22;48538;32.784;-96.802;2023-05-18T02:04:46;25.00;99.90
19809;DHT22;48538;32.784;-96.802;2023-05-18T02:07:12;25.00;99.90
19809;DHT22;48538;32.784;-96.802;2023-05-18T02:09:38;25.00;99.90
19809;DHT22;48538;32.784;-96.802;2023-05-18T02:12:05;24.90;99.90
19809;DHT22;48538;32.784;-96.802;2023-05-18T02:14:32;24.80;99.90
19809;DHT22;48538;32.784;-96.802;2023-05-18T02:16:58;24.80;99.90
19809;DHT22;48538;32.784;-96.802;2023-05-18T02:19:26;24.70;99.90
19809;DHT22;48538;32.784;-96.802;2023-05-18T02:21:52;24.70;99.90
19809;DHT22;48538;32.784;-96.802;2023-05-18T02:24:18;24.70;99.90
19809;DHT22;48538;32.784;-96.802;2023-05-18T02:26:45;24.70;99.90
19809;DHT22;48538;32.784;-96.802;2023-05-18T02:29:11;24.60;99.90
19809;DHT22;48538;32.784;-96.802;2023-05-18T02:31:39;24.60;99.90
19809;DHT22;48538;32.784;-96.802;2023-05-18T02:34:06;24.50;99.90
19809;DHT22;48538;32.784;-96.802;2023-05-18T02:36:34;24.50;99.90
19809;DHT22;48538;32.784;-96.802;2023-05-18T02:39:05;24.40;99.90
19809;DHT22;48538;32.784;-96.802;2023-05-18T02:41:33;24.30;99.90
19809;DHT22;48538;32.784;-96.802;2023-05-18T02:43:59;24.30;99.90
19809;DHT22;48538;32.784;-96.802;2023-05-18T02:46:27;24.20;99.90
19809;DHT22;48538;32.784;-96.802;2023-05-18T02:48:54;24.20;99.90
19809;DHT22;48538;32.784;-96.802;2023-05-18T02:51:20;24.10;99.90
19809;DHT22;48538;32.784;-96.802;2023-05-18T02:53:48;24.10;99.90
19809;DHT22;48538;32.784;-96.802;2023-05-18T02:56:14;24.10;99.90
19809;DHT22;48538;32.784;-96.802;2023-05-18T02:58:43;24.10;99.90
19809;DHT22;48538;32.784;-96.802;2023-05-18T03:01:10;24.00;99.90
19809;DHT22;48538;32.784;-96.802;2023-05-18T03:03:39;23.90;99.90
19809;DHT22;48538;32.784;-96.802;2023-05-18T03:06:09;24.00;99.90
19809;DHT22;48538;32.784;-96.802;2023-05-18T03:08:36;23.90;99.90
19809;DHT22;48538;32.784;-96.802;2023-05-18T03:11:02;23.90;99.90
19809;DHT22;48538;32.784;-96.802;2023-05-18T03:13:28;23.80;99.90
19809;DHT22;48538;32.784;-96.802;2023-05-18T03:15:55;23.80;99.90
19809;DHT22;48538;32.784;-96.802;2023-05-18T03:18:21;23.70;99.90
19809;DHT22;48538;32.784;-96.802;2023-05-18T03:20:50;23.60;99.90
19809;DHT22;48538;32.784;-96.802;2023-05-18T03:23:20;23.50;99.90
19809;DHT22;48538;32.784;-96.802;2023-05-18T03:25:46;23.60;99.90
19809;DHT22;48538;32.784;-96.802;2023-05-18T03:28:18;23.60;99.90
19809;DHT22;48538;32.784;-96.802;2023-05-18T03:30:45;23.50;99.90
19809;DHT22;48538;32.784;-96.802;2023-05-18T03:33:12;23.50;99.90
19809;DHT22;48538;32.784;-96.802;2023-05-18T03:35:38;23.50;99.90
19809;DHT22;48538;32.784;-96.802;2023-05-18T03:38:06;23.50;99.90
19809;DHT22;48538;32.784;-96.802;2023-05-18T03:40:32;23.50;99.90
19809;DHT22;48538;32.784;-96.802;2023-05-18T03:42:58;23.30;99.90
19809;DHT22;48538;32.784;-96.802;2023-05-18T03:45:24;23.30;99.90
19809;DHT22;48538;32.784;-96.802;2023-05-18T03:47:51;23.30;99.90
19809;DHT22;48538;32.784;-96.802;2023-05-18T03:50:17;23.30;99.90
19809;DHT22;48538;32.784;-96.802;2023-05-18T03:52:44;23.20;99.90
19809;DHT22;48538;32.784;-96.802;2023-05-18T03:55:10;23.10;99.90
19809;DHT22;48538;32.784;-96.802;2023-05-18T03:57:36;23.20;99.90
19809;DHT22;48538;32.784;-96.802;2023-05-18T04:00:04;23.20;99.90
19809;DHT22;48538;32.784;-96.802;2023-05-18T04:02:35;23.10;99.90
19809;DHT22;48538;32.784;-96.802;2023-05-18T04:05:01;23.10;99.90
19809;DHT22;48538;32.784;-96.802;2023-05-18T04:07:27;23.10;99.90
19809;DHT22;48538;32.784;-96.802;2023-05-18T04:09:54;23.00;99.90
19809;DHT22;48538;32.784;-96.802;2023-05-18T04:12:21;23.00;99.90
19809;DHT22;48538;32.784;-96.802;2023-05-18T04:14:48;22.90;99.90
19809;DHT22;48538;32.784;-96.802;2023-05-18T04:17:19;23.00;99.90
19809;DHT22;48538;32.784;-96.802;2023-05-18T04:19:48;23.00;99.90
19809;DHT22;48538;32.784;-96.802;2023-05-18T04:22:15;22.90;99.90
19809;DHT22;48538;32.784;-96.802;2023-05-18T04:24:42;23.00;99.90
19809;DHT22;48538;32.784;-96.802;2023-05-18T04:27:10;22.90;99.90
19809;DHT22;48538;32.784;-96.802;2023-05-18T04:29:37;22.90;99.90
19809;DHT22;48538;32.784;-96.802;2023-05-18T04:32:07;22.80;99.90
19809;DHT22;48538;32.784;-96.802;2023-05-18T04:34:36;22.80;99.90
19809;DHT22;48538;32.784;-96.802;2023-05-18T04:37:06;22.80;99.90
19809;DHT22;48538;32.784;-96.802;2023-05-18T04:39:33;22.70;99.90
19809;DHT22;48538;32.784;-96.802;2023-05-18T04:42:04;22.80;99.90
19809;DHT22;48538;32.784;-96.802;2023-05-18T04:44:31;22.80;99.90
19809;DHT22;48538;32.784;-96.802;2023-05-18T04:46:59;22.80;99.90
19809;DHT22;48538;32.784;-96.802;2023-05-18T04:49:25;22.80;99.90
19809;DHT22;48538;32.784;-96.802;2023-05-18T04:51:54;22.70;99.90
19809;DHT22;48538;32.784;-96.802;2023-05-18T04:54:22;22.70;99.90
19809;DHT22;48538;32.784;-96.802;2023-05-18T04:56:49;22.60;99.90
19809;DHT22;48538;32.784;-96.802;2023-05-18T04:59:17;22.60;99.90
19809;DHT22;48538;32.784;-96.802;2023-05-18T05:01:44;22.60;99.90
19809;DHT22;48538;32.784;-96.802;2023-05-18T05:04:11;22.50;99.90
19809;DHT22;48538;32.784;-96.802;2023-05-18T05:06:37;22.60;99.90
19809;DHT22;48538;32.784;-96.802;2023-05-18T05:09:04;22.60;99.90
19809;DHT22;48538;32.784;-96.802;2023-05-18T05:11:31;22.60;99.90
19809;DHT22;48538;32.784;-96.802;2023-05-18T05:13:57;22.50;99.90
19809;DHT22;48538;32.784;-96.802;2023-05-18T05:16:23;22.50;99.90
19809;DHT22;48538;32.784;-96.802;2023-05-18T05:18:50;22.50;99.90
19809;DHT22;48538;32.784;-96.802;2023-05-18T05:21:16;22.50;99.90
19809;DHT22;48538;32.784;-96.802;2023-05-18T05:23:42;22.50;99.90
19809;DHT22;48538;32.784;-96.802;2023-05-18T05:26:10;22.50;99.90
19809;DHT22;48538;32.784;-96.802;2023-05-18T05:28:36;22.50;99.90
19809;DHT22;48538;32.784;-96.802;2023-05-18T05:31:02;22.50;99.90
19809;DHT22;48538;32.784;-96.802;2023-05-18T05:33:29;22.50;99.90
19809;DHT22;48538;32.784;-96.802;2023-05-18T05:35:55;22.40;99.90
19809;DHT22;48538;32.784;-96.802;2023-05-18T05:38:22;22.40;99.90
19809;DHT22;48538;32.784;-96.802;2023-05-18T05:40:48;22.40;99.90
19809;DHT22;48538;32.784;-96.802;2023-05-18T05:43:14;22.30;99.90
19809;DHT22;48538;32.784;-96.802;2023-05-18T05:45:41;22.30;99.90
19809;DHT22;48538;32.784;-96.802;2023-05-18T05:48:08;22.30;99.90
19809;DHT22;48538;32.784;-96.802;2023-05-18T05:50:35;22.40;99.90
19809;DHT22;48538;32.784;-96.802;2023-05-18T05:53:01;22.40;99.90
19809;DHT22;48538;32.784;-96.802;2023-05-18T05:55:28;22.40;99.90
19809;DHT22;48538;32.784;-96.802;2023-05-18T05:57:54;22.40;99.90
19809;DHT22;48538;32.784;-96.802;2023-05-18T06:00:20;22.40;99.90
19809;DHT22;48538;32.784;-96.802;2023-05-18T06:02:48;22.40;99.90
19809;DHT22;48538;32.784;-96.802;2023-05-18T06:05:15;22.30;99.90
19809;DHT22;48538;32.784;-96.802;2023-05-18T06:07:43;22.40;99.90
19809;DHT22;48538;32.784;-96.802;2023-05-18T06:10:09;22.40;99.90
19809;DHT22;48538;32.784;-96.802;2023-05-18T06:12:36;22.40;99.90
19809;DHT22;48538;32.784;-96.802;2023-05-18T06:15:02;22.50;99.90
19809;DHT22;48538;32.784;-96.802;2023-05-18T06:17:28;22.40;99.90
19809;DHT22;48538;32.784;-96.802;2023-05-18T06:19:55;22.40;99.90
19809;DHT22;48538;32.784;-96.802;2023-05-18T06:22:22;22.30;99.90
19809;DHT22;48538;32.784;-96.802;2023-05-18T06:24:49;22.30;99.90
19809;DHT22;48538;32.784;-96.802;2023-05-18T06:27:15;22.20;99.90
19809;DHT22;48538;32.784;-96.802;2023-05-18T06:29:41;22.20;99.90
19809;DHT22;48538;32.784;-96.802;2023-05-18T06:32:08;22.20;99.90
19809;DHT22;48538;32.784;-96.802;2023-05-18T06:34:34;22.20;99.90
19809;DHT22;48538;32.784;-96.802;2023-05-18T06:37:02;22.20;99.90
19809;DHT22;48538;32.784;-96.802;2023-05-18T06:39:28;22.20;99.90
19809;DHT22;48538;32.784;-96.802;2023-05-18T06:41:55;22.20;99.90
19809;DHT22;48538;32.784;-96.802;2023-05-18T06:44:21;22.10;99.90
19809;DHT22;48538;32.784;-96.802;2023-05-18T06:46:47;22.30;99.90
19809;DHT22;48538;32.784;-96.802;2023-05-18T06:49:14;22.30;99.90
19809;DHT22;48538;32.784;-96.802;2023-05-18T06:51:40;22.30;99.90
19809;DHT22;48538;32.784;-96.802;2023-05-18T06:54:08;22.20;99.90
19809;DHT22;48538;32.784;-96.802;2023-05-18T06:56:35;22.10;99.90
19809;DHT22;48538;32.784;-96.802;2023-05-18T06:59:01;22.10;99.90
19809;DHT22;48538;32.784;-96.802;2023-05-18T07:01:28;22.10;99.90
19809;DHT22;48538;32.784;-96.802;2023-05-18T07:03:54;22.00;99.90
19809;DHT22;48538;32.784;-96.802;2023-05-18T07:06:20;22.00;99.90
19809;DHT22;48538;32.784;-96.802;2023-05-18T07:08:47;21.90;99.90
19809;DHT22;48538;32.784;-96.802;2023-05-18T07:11:13;22.00;99.90
19809;DHT22;48538;32.784;-96.802;2023-05-18T07:13:39;21.90;99.90
19809;DHT22;48538;32.784;-96.802;2023-05-18T07:16:06;21.90;99.90
19809;DHT22;48538;32.784;-96.802;2023-05-18T07:18:35;22.00;99.90
19809;DHT22;48538;32.784;-96.802;2023-05-18T07:21:01;21.90;99.90
19809;DHT22;48538;32.784;-96.802;2023-05-18T07:23:28;21.90;99.90
19809;DHT22;48538;32.784;-96.802;2023-05-18T07:25:55;22.00;99.90
19809;DHT22;48538;32.784;-96.802;2023-05-18T07:28:22;22.00;99.90
19809;DHT22;48538;32.784;-96.802;2023-05-18T07:30:48;21.80;99.90
19809;DHT22;48538;32.784;-96.802;2023-05-18T07:33:14;21.80;99.90
19809;DHT22;48538;32.784;-96.802;2023-05-18T07:35:41;21.80;99.90
19809;DHT22;48538;32.784;-96.802;2023-05-18T07:38:09;21.80;99.90
19809;DHT22;48538;32.784;-96.802;2023-05-18T07:40:36;21.80;99.90
19809;DHT22;48538;32.784;-96.802;2023-05-18T07:43:02;21.70;99.90
19809;DHT22;48538;32.784;-96.802;2023-05-18T07:45:28;21.70;99.90
19809;DHT22;48538;32.784;-96.802;2023-05-18T07:47:58;21.70;99.90
19809;DHT22;48538;32.784;-96.802;2023-05-18T07:50:26;21.70;99.90
19809;DHT22;48538;32.784;-96.802;2023-05-18T07:52:54;21.80;99.90
19809;DHT22;48538;32.784;-96.802;2023-05-18T07:55:21;21.80;99.90
19809;DHT22;48538;32.784;-96.802;2023-05-18T07:57:47;21.80;99.90
19809;DHT22;48538;32.784;-96.802;2023-05-18T08:00:14;21.80;99.90
19809;DHT22;48538;32.784;-96.802;2023-05-18T08:02:42;21.80;99.90
19809;DHT22;48538;32.784;-96.802;2023-05-18T08:05:10;21.80;99.90
19809;DHT22;48538;32.784;-96.802;2023-05-18T08:07:37;21.70;99.90
19809;DHT22;48538;32.784;-96.802;2023-05-18T08:10:03;21.80;99.90
19809;DHT22;48538;32.784;-96.802;2023-05-18T08:12:30;21.80;99.90
19809;DHT22;48538;32.784;-96.802;2023-05-18T08:14:56;21.70;99.90
19809;DHT22;48538;32.784;-96.802;2023-05-18T08:17:23;21.70;99.90
19809;DHT22;48538;32.784;-96.802;2023-05-18T08:19:49;21.60;99.90
19809;DHT22;48538;32.784;-96.802;2023-05-18T08:22:18;21.60;99.90
19809;DHT22;48538;32.784;-96.802;2023-05-18T08:24:45;21.70;99.90
19809;DHT22;48538;32.784;-96.802;2023-05-18T08:27:11;21.70;99.90
19809;DHT22;48538;32.784;-96.802;2023-05-18T08:29:38;21.60;99.90
19809;DHT22;48538;32.784;-96.802;2023-05-18T08:32:07;21.60;99.90
19809;DHT22;48538;32.784;-96.802;2023-05-18T08:34:34;21.60;99.90
19809;DHT22;48538;32.784;-96.802;2023-05-18T08:37:00;21.60;99.90
19809;DHT22;48538;32.784;-96.802;2023-05-18T08:39:27;21.50;99.90
19809;DHT22;48538;32.784;-96.802;2023-05-18T08:42:10;21.50;99.90
19809;DHT22;48538;32.784;-96.802;2023-05-18T08:44:47;21.40;99.90
19809;DHT22;48538;32.784;-96.802;2023-05-18T08:47:16;21.50;99.90
19809;DHT22;48538;32.784;-96.802;2023-05-18T08:49:44;21.50;99.90
19809;DHT22;48538;32.784;-96.802;2023-05-18T08:52:16;21.40;99.90
19809;DHT22;48538;32.784;-96.802;2023-05-18T08:54:44;21.40;99.90
19809;DHT22;48538;32.784;-96.802;2023-05-18T08:57:11;21.40;99.90
19809;DHT22;48538;32.784;-96.802;2023-05-18T08:59:41;21.30;99.90
19809;DHT22;48538;32.784;-96.802;2023-05-18T09:02:09;21.30;99.90
19809;DHT22;48538;32.784;-96.802;2023-05-18T09:04:36;21.30;99.90
19809;DHT22;48538;32.784;-96.802;2023-05-18T09:07:03;21.30;99.90
19809;DHT22;48538;32.784;-96.802;2023-05-18T09:09:31;21.30;99.90
19809;DHT22;48538;32.784;-96.802;2023-05-18T09:11:58;21.30;99.90
19809;DHT22;48538;32.784;-96.802;2023-05-18T09:14:24;21.40;99.90
19809;DHT22;48538;32.784;-96.802;2023-05-18T09:16:52;21.40;99.90
19809;DHT22;48538;32.784;-96.802;2023-05-18T09:19:18;21.30;99.90
19809;DHT22;48538;32.784;-96.802;2023-05-18T09:21:45;21.30;99.90
19809;DHT22;48538;32.784;-96.802;2023-05-18T09:24:12;21.30;99.90
19809;DHT22;48538;32.784;-96.802;2023-05-18T09:26:38;21.20;99.90
19809;DHT22;48538;32.784;-96.802;2023-05-18T09:29:19;21.30;99.90
19809;DHT22;48538;32.784;-96.802;2023-05-18T09:31:46;21.30;99.90
19809;DHT22;48538;32.784;-96.802;2023-05-18T09:34:14;21.30;99.90
19809;DHT22;48538;32.784;-96.802;2023-05-18T09:36:40;21.20;99.90
19809;DHT22;48538;32.784;-96.802;2023-05-18T09:39:11;21.20;99.90
19809;DHT22;48538;32.784;-96.802;2023-05-18T09:41:38;21.20;99.90
19809;DHT22;48538;32.784;-96.802;2023-05-18T09:44:06;21.20;99.90
19809;DHT22;48538;32.784;-96.802;2023-05-18T09:46:40;21.30;99.90
19809;DHT22;48538;32.784;-96.802;2023-05-18T09:49:06;21.30;99.90
19809;DHT22;48538;32.784;-96.802;2023-05-18T09:51:39;21.30;99.90
19809;DHT22;48538;32.784;-96.802;2023-05-18T09:54:06;21.20;99.90
19809;DHT22;48538;32.784;-96.802;2023-05-18T09:56:36;21.20;99.90
19809;DHT22;48538;32.784;-96.802;2023-05-18T09:59:12;21.20;99.90
19809;DHT22;48538;32.784;-96.802;2023-05-18T10:01:58;21.10;99.90
19809;DHT22;48538;32.784;-96.802;2023-05-18T10:04:37;21.20;99.90
19809;DHT22;48538;32.784;-96.802;2023-05-18T10:07:15;21.10;99.90
19809;DHT22;48538;32.784;-96.802;2023-05-18T10:09:43;21.10;99.90
19809;DHT22;48538;32.784;-96.802;2023-05-18T10:12:16;21.10;99.90
19809;DHT22;48538;32.784;-96.802;2023-05-18T10:14:45;21.10;99.90
19809;DHT22;48538;32.784;-96.802;2023-05-18T10:17:12;21.10;99.90
19809;DHT22;48538;32.784;-96.802;2023-05-18T10:19:40;21.10;99.90
19809;DHT22;48538;32.784;-96.802;2023-05-18T10:22:07;21.10;99.90
19809;DHT22;48538;32.784;-96.802;2023-05-18T10:24:38;21.10;99.90
19809;DHT22;48538;32.784;-96.802;2023-05-18T10:27:08;21.10;99.90
19809;DHT22;48538;32.784;-96.802;2023-05-18T10:29:36;21.10;99.90
19809;DHT22;48538;32.784;-96.802;2023-05-18T10:32:03;21.00;99.90
19809;DHT22;48538;32.784;-96.802;2023-05-18T10:34:34;21.00;99.90
19809;DHT22;48538;32.784;-96.802;2023-05-18T10:37:01;21.00;99.90
19809;DHT22;48538;32.784;-96.802;2023-05-18T10:39:33;21.00;99.90
19809;DHT22;48538;32.784;-96.802;2023-05-18T10:42:01;21.00;99.90
19809;DHT22;48538;32.784;-96.802;2023-05-18T10:44:29;20.90;99.90
19809;DHT22;48538;32.784;-96.802;2023-05-18T10:46:56;21.00;99.90
19809;DHT22;48538;32.784;-96.802;2023-05-18T10:49:25;21.00;99.90
19809;DHT22;48538;32.784;-96.802;2023-05-18T10:51:52;21.10;99.90
19809;DHT22;48538;32.784;-96.802;2023-05-18T10:54:21;21.00;99.90
19809;DHT22;48538;32.784;-96.802;2023-05-18T10:56:52;21.10;99.90
19809;DHT22;48538;32.784;-96.802;2023-05-18T10:59:19;21.00;99.90
19809;DHT22;48538;32.784;-96.802;2023-05-18T11:01:50;21.10;99.90
19809;DHT22;48538;32.784;-96.802;2023-05-18T11:04:26;21.00;99.90
19809;DHT22;48538;32.784;-96.802;2023-05-18T11:07:00;21.00;99.90
19809;DHT22;48538;32.784;-96.802;2023-05-18T11:09:29;21.10;99.90
19809;DHT22;48538;32.784;-96.802;2023-05-18T11:11:58;21.10;99.90
19809;DHT22;48538;32.784;-96.802;2023-05-18T11:14:29;21.00;99.90
19809;DHT22;48538;32.784;-96.802;2023-05-18T11:17:15;21.00;99.90
19809;DHT22;48538;32.784;-96.802;2023-05-18T11:27:52;21.00;99.90
19809;DHT22;48538;32.784;-96.802;2023-05-18T11:33:25;21.00;99.90
19809;DHT22;48538;32.784;-96.802;2023-05-18T11:36:03;21.00;99.90
19809;DHT22;48538;32.784;-96.802;2023-05-18T11:38:51;21.00;99.90
19809;DHT22;48538;32.784;-96.802;2023-05-18T11:41:33;20.90;99.90
19809;DHT22;48538;32.784;-96.802;2023-05-18T11:44:30;20.90;99.90
19809;DHT22;48538;32.784;-96.802;2023-05-18T11:49:26;20.90;99.90
19809;DHT22;48538;32.784;-96.802;2023-05-18T11:54:44;20.90;99.90
19809;DHT22;48538;32.784;-96.802;2023-05-18T11:57:15;20.90;99.90
19809;DHT22;48538;32.784;-96.802;2023-05-18T11:59:46;21.00;99.90
19809;DHT22;48538;32.784;-96.802;2023-05-18T12:02:19;20.90;99.90
19809;DHT22;48538;32.784;-96.802;2023-05-18T12:04:47;20.90;99.90
19809;DHT22;48538;32.784;-96.802;2023-05-18T12:07:18;20.90;99.90
19809;DHT22;48538;32.784;-96.802;2023-05-18T12:09:47;21.00;99.90
19809;DHT22;48538;32.784;-96.802;2023-05-18T12:12:15;21.00;99.90
19809;DHT22;48538;32.784;-96.802;2023-05-18T12:14:53;21.20;99.90
19809;DHT22;48538;32.784;-96.802;2023-05-18T12:17:20;21.30;99.90
19809;DHT22;48538;32.784;-96.802;2023-05-18T12:19:48;21.30;99.90
19809;DHT22;48538;32.784;-96.802;2023-05-18T12:22:15;21.40;99.90
19809;DHT22;48538;32.784;-96.802;2023-05-18T12:24:42;21.50;99.90
19809;DHT22;48538;32.784;-96.802;2023-05-18T12:27:10;21.50;99.90
19809;DHT22;48538;32.784;-96.802;2023-05-18T12:29:38;21.60;99.90
19809;DHT22;48538;32.784;-96.802;2023-05-18T12:32:06;21.60;99.90
19809;DHT22;48538;32.784;-96.802;2023-05-18T12:34:33;21.70;99.90
19809;DHT22;48538;32.784;-96.802;2023-05-18T12:36:59;21.90;99.90
19809;DHT22;48538;32.784;-96.802;2023-05-18T12:39:26;22.10;99.90
19809;DHT22;48538;32.784;-96.802;2023-05-18T12:41:52;22.20;99.90
19809;DHT22;48538;32.784;-96.802;2023-05-18T12:44:19;22.30;99.90
19809;DHT22;48538;32.784;-96.802;2023-05-18T12:46:46;22.60;99.90
19809;DHT22;48538;32.784;-96.802;2023-05-18T12:49:12;22.70;99.90
19809;DHT22;48538;32.784;-96.802;2023-05-18T12:51:39;22.70;99.90
19809;DHT22;48538;32.784;-96.802;2023-05-18T12:54:06;22.70;99.90
19809;DHT22;48538;32.784;-96.802;2023-05-18T12:57:08;22.70;99.90
19809;DHT22;48538;32.784;-96.802;2023-05-18T12:59:34;22.70;99.90
19809;DHT22;48538;32.784;-96.802;2023-05-18T13:02:01;22.70;99.90
19809;DHT22;48538;32.784;-96.802;2023-05-18T13:04:33;22.80;99.90
19809;DHT22;48538;32.784;-96.802;2023-05-18T13:07:00;22.80;99.90
19809;DHT22;48538;32.784;-96.802;2023-05-18T13:09:26;22.90;99.90
19809;DHT22;48538;32.784;-96.802;2023-05-18T13:11:59;22.90;99.90
19809;DHT22;48538;32.784;-96.802;2023-05-18T13:14:27;22.90;99.90
19809;DHT22;48538;32.784;-96.802;2023-05-18T13:16:55;22.90;99.90
19809;DHT22;48538;32.784;-96.802;2023-05-18T13:19:22;22.90;99.90
19809;DHT22;48538;32.784;-96.802;2023-05-18T13:21:55;22.80;99.90
19809;DHT22;48538;32.784;-96.802;2023-05-18T13:24:21;22.90;99.90
19809;DHT22;48538;32.784;-96.802;2023-05-18T13:26:48;23.00;99.90
19809;DHT22;48538;32.784;-96.802;2023-05-18T13:29:14;23.00;99.90
19809;DHT22;48538;32.784;-96.802;2023-05-18T13:31:40;23.10;99.90
19809;DHT22;48538;32.784;-96.802;2023-05-18T13:34:06;23.10;99.90
19809;DHT22;48538;32.784;-96.802;2023-05-18T13:36:33;23.20;99.90
19809;DHT22;48538;32.784;-96.802;2023-05-18T13:39:00;23.20;99.90
19809;DHT22;48538;32.784;-96.802;2023-05-18T13:41:32;23.30;99.90
19809;DHT22;48538;32.784;-96.802;2023-05-18T13:44:00;23.20;99.90
19809;DHT22;48538;32.784;-96.802;2023-05-18T13:46:26;23.30;99.90
19809;DHT22;48538;32.784;-96.802;2023-05-18T13:48:52;23.40;99.90
19809;DHT22;48538;32.784;-96.802;2023-05-18T13:51:18;23.40;99.90
19809;DHT22;48538;32.784;-96.802;2023-05-18T13:53:45;23.30;99.90
19809;DHT22;48538;32.784;-96.802;2023-05-18T13:56:11;23.40;99.90
19809;DHT22;48538;32.784;-96.802;2023-05-18T13:58:37;23.30;99.90
19809;DHT22;48538;32.784;-96.802;2023-05-18T14:01:04;23.30;99.90
19809;DHT22;48538;32.784;-96.802;2023-05-18T14:03:32;23.30;99.90
19809;DHT22;48538;32.784;-96.802;2023-05-18T14:05:58;23.40;99.90
19809;DHT22;48538;32.784;-96.802;2023-05-18T14:08:25;23.30;99.90
19809;DHT22;48538;32.784;-96.802;2023-05-18T14:10:51;23.40;99.90
19809;DHT22;48538;32.784;-96.802;2023-05-18T14:13:17;23.50;99.90
19809;DHT22;48538;32.784;-96.802;2023-05-18T14:15:43;23.50;99.90
19809;DHT22;48538;32.784;-96.802;2023-05-18T14:18:10;23.60;99.90
19809;DHT22;48538;32.784;-96.802;2023-05-18T14:20:37;23.60;99.90
19809;DHT22;48538;32.784;-96.802;2023-05-18T14:23:04;23.70;99.90
19809;DHT22;48538;32.784;-96.802;2023-05-18T14:25:30;23.70;99.90
19809;DHT22;48538;32.784;-96.802;2023-05-18T14:27:56;23.80;99.90
19809;DHT22;48538;32.784;-96.802;2023-05-18T14:30:23;23.70;99.90
19809;DHT22;48538;32.784;-96.802;2023-05-18T14:32:49;23.70;99.90
19809;DHT22;48538;32.784;-96.802;2023-05-18T14:35:15;23.80;99.90
19809;DHT22;48538;32.784;-96.802;2023-05-18T14:37:41;23.80;99.90
19809;DHT22;48538;32.784;-96.802;2023-05-18T14:40:08;23.90;99.90
19809;DHT22;48538;32.784;-96.802;2023-05-18T14:42:35;23.90;99.90
19809;DHT22;48538;32.784;-96.802;2023-05-18T14:45:02;23.90;99.90
19809;DHT22;48538;32.784;-96.802;2023-05-18T14:47:28;23.80;99.90
19809;DHT22;48538;32.784;-96.802;2023-05-18T14:49:54;23.90;99.90
19809;DHT22;48538;32.784;-96.802;2023-05-18T14:52:21;23.90;99.90
19809;DHT22;48538;32.784;-96.802;2023-05-18T14:54:47;23.80;99.90
19809;DHT22;48538;32.784;-96.802;2023-05-18T14:57:13;23.80;99.90
19809;DHT22;48538;32.784;-96.802;2023-05-18T14:59:42;23.90;99.90
19809;DHT22;48538;32.784;-96.802;2023-05-18T15:02:09;23.90;99.90
19809;DHT22;48538;32.784;-96.802;2023-05-18T15:04:35;24.00;99.90
19809;DHT22;48538;32.784;-96.802;2023-05-18T15:07:01;24.00;99.90
19809;DHT22;48538;32.784;-96.802;2023-05-18T15:09:28;24.00;99.90
19809;DHT22;48538;32.784;-96.802;2023-05-18T15:11:54;23.90;99.90
19809;DHT22;48538;32.784;-96.802;2023-05-18T15:14:21;24.00;99.90
19809;DHT22;48538;32.784;-96.802;2023-05-18T15:16:47;24.00;99.90
19809;DHT22;48538;32.784;-96.802;2023-05-18T15:19:13;24.10;99.90
19809;DHT22;48538;32.784;-96.802;2023-05-18T15:21:40;24.10;99.90
19809;DHT22;48538;32.784;-96.802;2023-05-18T15:24:06;24.20;99.90
19809;DHT22;48538;32.784;-96.802;2023-05-18T15:26:32;24.20;99.90
19809;DHT22;48538;32.784;-96.802;2023-05-18T15:28:59;24.20;99.90
19809;DHT22;48538;32.784;-96.802;2023-05-18T15:31:25;24.30;99.90
19809;DHT22;48538;32.784;-96.802;2023-05-18T15:33:55;24.40;99.90
19809;DHT22;48538;32.784;-96.802;2023-05-18T15:36:21;24.50;99.90